Orbital elements of SL-14 DEB
| Launched | 17 August 1987 |
| Flight ended | – |
| Launch site | Plesetsk Missile and Space Complex, Russia |
| Owner | Commonwealth of Independent States (former USSR) |
| NORAD ID | 39971 |
| Date fetched |
Epoch osculation |
Inc. [°] |
Ecc. | RA asc node [hr] |
Arg Peri. [°] |
Mean anom [°] |
Mean motion [rev/day] |
Abs. mag |
| Date fetched |
Epoch osculation |
Inc. [°] |
Ecc. | RA asc node [hr] |
Arg Peri. [°] |
Mean anom [°] |
Mean motion [rev/day] |
Abs. mag |
| 2026 May 06 17:57 | 2026 May 04 05:53:20 | 82.4531 | 0.00631 | 19.3576 | 189.5732 | 348.6851 | 13.90695 | – |
| 2026 May 05 17:57 | 2026 May 04 05:53:20 | 82.4531 | 0.00631 | 19.3576 | 189.5732 | 348.6851 | 13.90695 | – |
| 2026 May 04 17:57 | 2026 Apr 27 06:24:29 | 82.4528 | 0.00622 | 19.7359 | 209.3585 | 348.6851 | 13.90695 | – |
| 2026 May 03 17:57 | 2026 Apr 27 06:24:29 | 82.4528 | 0.00622 | 19.7359 | 209.3585 | 348.6851 | 13.90695 | – |
| 2026 May 02 17:57 | 2026 Apr 27 06:24:29 | 82.4528 | 0.00622 | 19.7359 | 209.3585 | 348.6851 | 13.90695 | – |
| 2026 May 01 17:56 | 2026 Apr 27 06:24:29 | 82.4528 | 0.00622 | 19.7359 | 209.3585 | 348.6851 | 13.90695 | – |
| 2026 Apr 30 17:56 | 2026 Apr 27 06:24:29 | 82.4528 | 0.00622 | 19.7359 | 209.3585 | 348.6851 | 13.90695 | – |
| 2026 Apr 29 17:57 | 2026 Apr 23 07:08:05 | 82.4530 | 0.00618 | 19.9512 | 220.7919 | 348.6851 | 13.90695 | – |
| 2026 Apr 28 17:56 | 2026 Apr 23 07:08:05 | 82.4530 | 0.00618 | 19.9512 | 220.7919 | 348.6851 | 13.90695 | – |
| 2026 Apr 27 17:58 | 2026 Apr 23 07:08:05 | 82.4530 | 0.00618 | 19.9512 | 220.7919 | 348.6851 | 13.90695 | – |
| 2026 Apr 26 17:58 | 2026 Apr 23 07:08:05 | 82.4530 | 0.00618 | 19.9512 | 220.7919 | 348.6851 | 13.90695 | – |
| 2026 Apr 25 17:58 | 2026 Apr 23 07:08:05 | 82.4530 | 0.00618 | 19.9512 | 220.7919 | 348.6851 | 13.90695 | – |
| 2026 Apr 24 17:59 | 2026 Apr 23 07:08:05 | 82.4530 | 0.00618 | 19.9512 | 220.7919 | 348.6851 | 13.90695 | – |
| 2026 Apr 23 17:57 | 2026 Apr 17 19:23:31 | 82.4529 | 0.00615 | 20.2488 | 236.8537 | 348.6851 | 13.90695 | – |
| 2026 Apr 22 17:57 | 2026 Apr 17 19:23:31 | 82.4529 | 0.00615 | 20.2488 | 236.8537 | 348.6851 | 13.90695 | – |
| 2026 Apr 21 17:57 | 2026 Apr 17 19:23:31 | 82.4529 | 0.00615 | 20.2488 | 236.8537 | 348.6851 | 13.90695 | – |
| 2026 Apr 20 17:57 | 2026 Apr 17 19:23:31 | 82.4529 | 0.00615 | 20.2488 | 236.8537 | 348.6851 | 13.90695 | – |
| 2026 Apr 19 17:58 | 2026 Apr 17 19:23:31 | 82.4529 | 0.00615 | 20.2488 | 236.8537 | 348.6851 | 13.90695 | – |
| 2026 Apr 18 17:56 | 2026 Apr 11 20:06:02 | 82.4543 | 0.00615 | 20.5725 | 254.3769 | 348.6851 | 13.90695 | – |
| 2026 Apr 16 17:57 | 2026 Apr 11 20:06:02 | 82.4543 | 0.00615 | 20.5725 | 254.3769 | 348.6851 | 13.90695 | – |
| 2026 Apr 14 17:57 | 2026 Apr 11 20:06:02 | 82.4543 | 0.00615 | 20.5725 | 254.3769 | 348.6851 | 13.90695 | – |
| 2026 Apr 13 17:57 | 2026 Apr 11 20:06:02 | 82.4543 | 0.00615 | 20.5725 | 254.3769 | 348.6851 | 13.90695 | – |
| 2026 Apr 12 17:57 | 2026 Apr 08 08:15:48 | 82.4544 | 0.00616 | 20.7619 | 264.6045 | 348.6851 | 13.90695 | – |
| 2026 Apr 11 17:57 | 2026 Apr 08 08:15:48 | 82.4544 | 0.00616 | 20.7619 | 264.6045 | 348.6851 | 13.90695 | – |
| 2026 Apr 10 17:58 | 2026 Apr 08 08:15:48 | 82.4544 | 0.00616 | 20.7619 | 264.6045 | 348.6851 | 13.90695 | – |
| 2026 Apr 09 18:01 | 2026 Apr 08 08:15:48 | 82.4544 | 0.00616 | 20.7619 | 264.6045 | 348.6851 | 13.90695 | – |